Time;durP1;ratioP1;P1;durP2;ratioP2;P2;SDS_P1;SDS_P2;PMS_P1;PMS_P2;Temp;Humidity;BMP_temperature;BMP_pressure;BME280_temperature;BME280_humidity;BME280_pressure;Samples;Min_cycle;Max_cycle;Signal;HPM_P1;HPM_P2
2023/04/23 00:01:58;;;;;;;89.87;39.97;;;7.80;99.90;;;;;;5077997;28;20181;-62
2023/04/23 00:04:25;;;;;;;85.82;39.63;;;7.80;99.90;;;;;;5073874;28;20071;-79
2023/04/23 00:06:51;;;;;;;90.85;39.22;;;7.80;99.90;;;;;;5077340;28;20041;-63
2023/04/23 00:09:17;;;;;;;92.43;39.88;;;7.80;99.90;;;;;;5074820;28;20017;-62
2023/04/23 00:11:44;;;;;;;88.90;37.65;;;7.80;99.90;;;;;;5064351;28;20099;-62
2023/04/23 00:14:10;;;;;;;89.70;38.58;;;7.80;99.90;;;;;;5077699;28;20043;-63
2023/04/23 00:16:38;;;;;;;91.82;39.47;;;7.70;99.90;;;;;;5077230;28;20056;-63
2023/04/23 00:19:03;;;;;;;89.38;39.05;;;7.70;99.90;;;;;;5072946;28;20320;-62
2023/04/23 00:21:30;;;;;;;93.13;40.60;;;7.70;99.90;;;;;;5075402;28;20020;-63
2023/04/23 00:23:55;;;;;;;97.93;39.92;;;7.70;99.90;;;;;;5077333;28;20029;-63
2023/04/23 00:26:21;;;;;;;94.73;42.00;;;7.80;99.90;;;;;;5076869;28;20031;-62
2023/04/23 00:28:47;;;;;;;92.63;41.17;;;7.80;99.90;;;;;;5077019;28;20458;-63
2023/04/23 00:31:13;;;;;;;89.10;39.77;;;7.80;99.90;;;;;;5075384;28;20024;-63
2023/04/23 00:33:38;;;;;;;96.00;39.87;;;7.80;99.90;;;;;;5077152;28;20310;-62
2023/04/23 00:36:04;;;;;;;91.10;40.07;;;7.80;99.90;;;;;;5076924;28;20082;-63
2023/04/23 00:38:30;;;;;;;94.47;39.23;;;7.90;99.90;;;;;;5075526;28;20036;-79
2023/04/23 00:40:56;;;;;;;92.63;40.07;;;7.80;99.90;;;;;;5067133;28;20420;-62
2023/04/23 00:43:22;;;;;;;105.87;40.50;;;7.80;99.90;;;;;;5076597;28;20025;-62
2023/04/23 00:45:49;;;;;;;93.43;41.05;;;7.80;99.90;;;;;;5066234;28;20059;-63
2023/04/23 00:48:16;;;;;;;89.50;37.88;;;7.80;99.90;;;;;;5070842;28;20362;-63
2023/04/23 00:50:42;;;;;;;91.88;39.78;;;7.80;99.90;;;;;;5067351;28;20028;-63
2023/04/23 00:53:07;;;;;;;87.55;39.25;;;7.80;99.90;;;;;;5075161;28;20070;-62
2023/04/23 00:55:34;;;;;;;103.43;40.57;;;7.90;99.90;;;;;;5076080;28;20024;-73
2023/04/23 00:58:00;;;;;;;99.53;41.20;;;7.90;99.90;;;;;;5076261;28;20078;-62
2023/04/23 01:00:26;;;;;;;108.67;41.17;;;7.80;99.90;;;;;;5073308;28;20399;-62
2023/04/23 01:02:52;;;;;;;94.57;40.93;;;7.80;99.90;;;;;;5075491;28;20027;-63
2023/04/23 01:05:19;;;;;;;98.22;40.50;;;7.90;99.90;;;;;;5076699;28;20028;-63
2023/04/23 01:07:46;;;;;;;88.72;39.22;;;7.80;99.90;;;;;;5075613;28;20043;-63
2023/04/23 01:10:12;;;;;;;90.30;37.58;;;7.90;99.90;;;;;;5075335;28;20032;-62
2023/04/23 01:12:39;;;;;;;92.03;37.67;;;7.90;99.90;;;;;;5075352;28;20052;-73
2023/04/23 01:15:07;;;;;;;88.70;39.65;;;7.90;99.90;;;;;;5076197;28;20023;-63
2023/04/23 01:17:33;;;;;;;93.30;40.38;;;7.90;99.90;;;;;;5061390;28;20033;-62
2023/04/23 01:19:59;;;;;;;90.07;41.47;;;8.00;99.90;;;;;;5074846;28;20057;-62
2023/04/23 01:22:25;;;;;;;98.53;41.83;;;8.00;99.90;;;;;;5076059;28;20028;-63
2023/04/23 01:24:51;;;;;;;100.03;43.47;;;8.00;99.90;;;;;;5075515;28;20253;-63
2023/04/23 01:27:18;;;;;;;95.25;40.83;;;8.00;99.90;;;;;;5075838;28;20022;-62
2023/04/23 01:29:46;;;;;;;98.88;39.63;;;8.10;99.90;;;;;;5072140;28;20443;-78
2023/04/23 01:32:12;;;;;;;93.88;39.92;;;8.10;99.90;;;;;;5064677;28;20492;-62
2023/04/23 01:34:39;;;;;;;98.70;41.55;;;8.10;99.90;;;;;;5075315;28;20024;-63
2023/04/23 01:37:05;;;;;;;89.78;39.72;;;8.10;99.90;;;;;;5075897;28;20533;-63
2023/04/23 01:39:31;;;;;;;100.82;41.55;;;8.20;99.90;;;;;;5075296;28;20036;-63
2023/04/23 01:41:57;;;;;;;102.23;43.83;;;8.20;99.90;;;;;;5074531;28;20040;-63
2023/04/23 01:44:22;;;;;;;99.03;41.80;;;8.20;99.90;;;;;;5075873;28;20356;-63
2023/04/23 01:46:48;;;;;;;107.60;42.10;;;8.20;99.90;;;;;;5075001;28;20035;-77
2023/04/23 01:49:14;;;;;;;98.73;42.13;;;8.30;99.90;;;;;;5075559;28;20390;-63
2023/04/23 01:51:40;;;;;;;104.33;41.87;;;8.30;99.90;;;;;;5065902;28;20403;-63
2023/04/23 01:54:06;;;;;;;91.35;39.08;;;8.30;99.90;;;;;;5075534;28;20029;-63
2023/04/23 01:56:34;;;;;;;98.43;41.20;;;8.30;99.90;;;;;;5075248;28;20028;-63
2023/04/23 01:59:00;;;;;;;86.57;38.85;;;8.30;99.90;;;;;;5074029;28;20032;-63
2023/04/23 02:01:46;;;;;;;93.75;39.45;;;8.30;99.90;;;;;;5070051;28;20420;-62
2023/04/23 02:04:13;;;;;;;90.22;38.63;;;8.40;99.90;;;;;;5070600;28;20034;-63
2023/04/23 02:06:43;;;;;;;94.55;39.58;;;8.40;99.90;;;;;;5066071;28;20027;-63
2023/04/23 02:09:10;;;;;;;91.50;37.80;;;8.40;99.90;;;;;;5069291;28;20024;-62
2023/04/23 02:11:36;;;;;;;91.25;37.47;;;8.40;99.90;;;;;;5062117;28;20120;-63
2023/04/23 02:14:02;;;;;;;99.63;40.67;;;8.40;99.90;;;;;;5062402;28;20104;-63
2023/04/23 02:16:28;;;;;;;84.30;36.25;;;8.50;99.90;;;;;;5071648;28;20402;-63
2023/04/23 02:18:54;;;;;;;84.73;36.30;;;8.40;99.90;;;;;;5060897;28;20099;-79
2023/04/23 02:21:23;;;;;;;87.70;37.63;;;8.50;99.90;;;;;;5069739;28;20056;-63
2023/04/23 02:23:49;;;;;;;82.80;35.97;;;8.50;99.90;;;;;;5071430;28;20475;-62
2023/04/23 02:26:15;;;;;;;78.85;34.45;;;8.50;99.90;;;;;;5068932;28;20028;-74
2023/04/23 02:28:41;;;;;;;85.07;36.40;;;8.50;99.90;;;;;;5073635;28;20040;-63
2023/04/23 02:31:07;;;;;;;77.50;35.07;;;8.50;99.90;;;;;;5072255;28;20077;-64
2023/04/23 02:33:32;;;;;;;81.87;33.30;;;8.50;99.90;;;;;;5065988;28;20033;-63
2023/04/23 02:35:58;;;;;;;76.67;34.77;;;8.60;99.90;;;;;;5073539;28;20024;-62
2023/04/23 02:38:24;;;;;;;76.40;33.17;;;8.60;99.90;;;;;;5071961;28;20052;-78
2023/04/23 02:40:50;;;;;;;78.27;34.73;;;8.60;99.90;;;;;;5069150;28;20116;-63
2023/04/23 02:43:17;;;;;;;78.27;31.93;;;8.60;99.90;;;;;;5072993;28;20086;-63
2023/04/23 02:45:43;;;;;;;71.32;31.73;;;8.60;99.90;;;;;;5071641;28;20056;-63
2023/04/23 02:48:10;;;;;;;62.25;29.90;;;8.60;99.90;;;;;;5071093;28;20446;-64
2023/04/23 02:50:37;;;;;;;69.57;32.00;;;8.50;99.90;;;;;;5072292;28;20035;-63
2023/04/23 02:53:04;;;;;;;66.03;30.80;;;8.50;99.90;;;;;;5069152;28;20127;-63
2023/04/23 02:55:30;;;;;;;65.97;31.15;;;8.50;99.90;;;;;;5073189;28;20032;-80
2023/04/23 02:57:57;;;;;;;66.65;30.95;;;8.50;99.90;;;;;;5074545;28;20070;-63
2023/04/23 03:00:24;;;;;;;63.85;29.42;;;8.50;99.90;;;;;;5070277;28;20055;-63
2023/04/23 03:02:50;;;;;;;72.40;32.50;;;8.50;99.90;;;;;;5071449;28;20589;-63
2023/04/23 03:05:16;;;;;;;67.87;30.97;;;8.50;99.90;;;;;;5073701;28;20028;-63
2023/04/23 03:07:41;;;;;;;63.77;28.97;;;8.50;99.90;;;;;;5074682;28;20017;-63
2023/04/23 03:10:07;;;;;;;65.40;31.33;;;8.50;99.90;;;;;;5078221;28;20029;-63
2023/04/23 03:12:33;;;;;;;66.55;29.42;;;8.40;99.90;;;;;;5078161;28;20021;-82
2023/04/23 03:14:59;;;;;;;69.73;31.50;;;8.50;99.90;;;;;;5077293;28;20103;-63
2023/04/23 03:17:25;;;;;;;67.63;30.97;;;8.50;99.90;;;;;;5077292;28;20020;-62
2023/04/23 03:19:50;;;;;;;69.53;30.47;;;8.50;99.90;;;;;;5074643;28;20028;-63
2023/04/23 03:22:16;;;;;;;65.60;31.27;;;8.50;99.90;;;;;;5063085;28;20108;-67
2023/04/23 03:24:42;;;;;;;64.80;29.67;;;8.50;99.90;;;;;;5070127;28;20087;-62
2023/04/23 03:27:07;;;;;;;66.93;29.73;;;8.50;99.90;;;;;;5072245;28;20029;-62
2023/04/23 03:29:33;;;;;;;64.87;29.40;;;8.50;99.90;;;;;;5078002;28;20123;-62
2023/04/23 03:31:59;;;;;;;67.40;31.93;;;8.50;99.90;;;;;;5077660;28;20035;-63
2023/04/23 03:34:24;;;;;;;65.90;29.67;;;8.60;99.90;;;;;;5077448;28;20051;-62
2023/04/23 03:36:50;;;;;;;75.23;29.73;;;8.60;99.90;;;;;;5077744;28;20024;-62
2023/04/23 03:39:16;;;;;;;66.30;28.93;;;8.50;99.90;;;;;;5077738;28;20044;-76
2023/04/23 03:41:42;;;;;;;74.60;30.73;;;8.60;99.90;;;;;;5077638;28;20067;-63
2023/04/23 03:44:08;;;;;;;65.53;29.80;;;8.60;99.90;;;;;;5077949;28;20288;-62
2023/04/23 03:46:34;;;;;;;68.27;29.50;;;8.60;99.90;;;;;;5070796;28;20021;-62
2023/04/23 03:49:00;;;;;;;66.33;29.77;;;8.60;99.90;;;;;;5076760;28;20414;-63
2023/04/23 03:51:26;;;;;;;65.73;29.87;;;8.60;99.90;;;;;;5067114;28;20020;-63
2023/04/23 03:53:51;;;;;;;58.55;28.30;;;8.60;99.90;;;;;;5076609;28;20028;-62
2023/04/23 03:56:17;;;;;;;66.50;29.10;;;8.60;99.90;;;;;;5071661;28;20032;-63
2023/04/23 03:58:43;;;;;;;66.10;28.87;;;8.50;99.90;;;;;;5070191;28;20029;-62
2023/04/23 04:01:09;;;;;;;60.60;28.10;;;8.50;99.90;;;;;;5074483;28;20025;-63
2023/04/23 04:03:35;;;;;;;57.50;28.67;;;8.50;99.90;;;;;;5076487;28;20040;-62
2023/04/23 04:06:01;;;;;;;59.58;29.20;;;8.50;99.90;;;;;;5073810;28;20081;-63
2023/04/23 04:08:28;;;;;;;65.05;28.08;;;8.40;99.90;;;;;;5076163;28;20031;-63
2023/04/23 04:10:54;;;;;;;;;;;8.40;99.90;;;;;;5070417;28;20012;-62
2023/04/23 04:13:19;;;;;;;60.63;26.33;;;8.40;99.90;;;;;;5073823;28;20215;-81
2023/04/23 04:15:45;;;;;;;55.93;26.90;;;8.30;99.90;;;;;;5075336;28;20033;-63
2023/04/23 04:18:11;;;;;;;54.67;25.53;;;8.30;99.90;;;;;;5076261;28;20039;-63
2023/04/23 04:20:37;;;;;;;61.60;28.57;;;8.30;99.90;;;;;;5072551;28;20415;-63
2023/04/23 04:23:02;;;;;;;62.00;27.90;;;8.30;99.90;;;;;;5074894;28;20021;-63
2023/04/23 04:25:28;;;;;;;61.90;28.30;;;8.30;99.90;;;;;;5076301;28;20032;-64
2023/04/23 04:27:54;;;;;;;58.38;28.52;;;8.30;99.90;;;;;;5076209;28;20021;-82
2023/04/23 04:30:20;;;;;;;56.17;27.13;;;8.40;99.90;;;;;;5075104;28;20120;-79
2023/04/23 04:32:46;;;;;;;59.37;27.93;;;8.40;99.90;;;;;;5073417;28;20024;-63
2023/04/23 04:35:13;;;;;;;64.53;29.80;;;8.40;99.90;;;;;;5076500;28;20017;-63
2023/04/23 04:37:39;;;;;;;57.92;28.15;;;8.50;99.90;;;;;;5073219;28;20028;-62
2023/04/23 04:40:06;;;;;;;56.67;27.30;;;8.50;99.90;;;;;;5076679;28;20037;-82
2023/04/23 04:42:32;;;;;;;58.72;27.63;;;8.50;99.90;;;;;;5072551;28;20327;-63
2023/04/23 04:44:58;;;;;;;58.40;27.73;;;8.50;99.90;;;;;;5073805;28;20028;-63
2023/04/23 04:47:24;;;;;;;58.30;27.73;;;8.60;99.90;;;;;;5078191;28;20033;-63
2023/04/23 04:49:50;;;;;;;56.78;26.88;;;8.60;99.90;;;;;;5075976;28;20024;-79
2023/04/23 04:52:16;;;;;;;53.57;26.73;;;8.60;99.90;;;;;;5076149;28;20033;-63
2023/04/23 04:54:42;;;;;;;58.57;26.80;;;8.60;99.90;;;;;;5074283;28;20020;-63
2023/04/23 04:57:08;;;;;;;55.10;27.87;;;8.70;99.90;;;;;;5075377;28;20025;-63
2023/04/23 04:59:33;;;;;;;59.27;28.30;;;8.70;99.90;;;;;;5070784;28;20066;-63
2023/04/23 05:01:59;;;;;;;61.30;27.13;;;8.70;99.90;;;;;;5075574;28;20086;-63
2023/04/23 05:04:25;;;;;;;51.63;26.20;;;8.70;99.90;;;;;;5075659;28;20036;-63
2023/04/23 05:06:51;;;;;;;53.13;24.90;;;8.70;99.90;;;;;;5073415;28;20024;-63
2023/04/23 05:09:16;;;;;;;47.50;25.93;;;8.70;99.90;;;;;;5073582;28;20025;-63
2023/04/23 05:11:42;;;;;;;53.97;26.00;;;8.70;99.90;;;;;;5072827;28;20020;-80
2023/04/23 05:14:08;;;;;;;53.27;24.40;;;8.80;99.90;;;;;;5073018;28;20406;-82
2023/04/23 05:16:34;;;;;;;54.03;25.67;;;8.80;99.90;;;;;;5075264;28;20116;-63
2023/04/23 05:18:59;;;;;;;60.73;26.60;;;8.80;99.90;;;;;;5075986;28;20378;-63
2023/04/23 05:21:26;;;;;;;50.33;25.47;;;8.80;99.90;;;;;;5075718;28;20020;-63
2023/04/23 05:23:53;;;;;;;57.67;26.58;;;8.80;99.90;;;;;;5075247;28;20029;-63
2023/04/23 05:26:19;;;;;;;53.35;25.25;;;8.80;99.90;;;;;;5073116;28;20078;-63
2023/04/23 05:28:45;;;;;;;82.03;51.23;;;8.80;99.90;;;;;;5068445;28;20045;-62
2023/04/23 05:31:11;;;;;;;62.57;31.17;;;8.80;99.90;;;;;;5075367;28;20013;-63
2023/04/23 05:33:37;;;;;;;57.47;30.10;;;8.90;99.90;;;;;;5072552;28;20074;-63
2023/04/23 05:36:03;;;;;;;63.47;28.75;;;8.90;99.90;;;;;;5072929;28;20029;-63
2023/04/23 05:38:29;;;;;;;68.77;35.13;;;8.90;99.90;;;;;;5072887;28;20032;-63
2023/04/23 05:40:55;;;;;;;72.13;36.93;;;8.90;99.90;;;;;;5075010;28;20328;-85
2023/04/23 05:43:20;;;;;;;120.60;63.47;;;8.90;99.90;;;;;;5069913;28;20460;-63
2023/04/23 05:45:46;;;;;;;64.07;35.27;;;8.90;99.90;;;;;;5073463;28;20029;-63
2023/04/23 05:48:12;;;;;;;74.43;34.10;;;9.00;99.90;;;;;;5073457;28;20016;-63
2023/04/23 05:50:37;;;;;;;69.87;37.87;;;9.10;99.90;;;;;;5072760;28;20017;-63
2023/04/23 05:53:03;;;;;;;66.20;38.67;;;9.30;99.90;;;;;;5071631;28;20335;-63
2023/04/23 05:55:29;;;;;;;54.53;29.73;;;9.50;99.90;;;;;;5073294;28;20015;-62
2023/04/23 05:57:55;;;;;;;55.20;30.20;;;9.60;99.90;;;;;;5072176;28;20036;-83
2023/04/23 06:00:21;;;;;;;60.87;35.30;;;9.80;99.90;;;;;;5070627;28;20016;-63
2023/04/23 06:02:46;;;;;;;62.03;33.53;;;9.90;99.90;;;;;;5064710;28;20329;-63
2023/04/23 06:05:12;;;;;;;71.77;40.80;;;10.00;99.90;;;;;;5070034;28;20028;-63
2023/04/23 06:07:38;;;;;;;44.60;25.50;;;10.00;99.90;;;;;;5070885;28;20029;-63
2023/04/23 06:10:05;;;;;;;80.63;44.17;;;10.10;99.90;;;;;;5064192;28;20312;-63
2023/04/23 06:12:31;;;;;;;68.45;38.05;;;10.10;99.90;;;;;;5074760;28;20415;-62
2023/04/23 06:14:57;;;;;;;57.50;30.83;;;10.10;99.90;;;;;;5066436;28;20049;-63
2023/04/23 06:17:22;;;;;;;56.43;28.80;;;10.10;99.90;;;;;;5074825;28;20338;-63
2023/04/23 06:19:48;;;;;;;54.87;28.13;;;10.20;99.90;;;;;;5072635;28;20060;-63
2023/04/23 06:22:14;;;;;;;48.30;27.23;;;10.20;99.90;;;;;;5056878;28;20032;-62
2023/04/23 06:24:39;;;;;;;41.47;23.03;;;10.30;99.90;;;;;;5063392;28;20482;-63
2023/04/23 06:27:05;;;;;;;60.03;35.97;;;10.30;99.90;;;;;;5071880;28;20036;-63
2023/04/23 06:29:31;;;;;;;50.37;26.60;;;10.30;99.90;;;;;;5064468;28;20048;-63
2023/04/23 06:32:00;;;;;;;37.93;20.90;;;10.40;99.90;;;;;;5069610;28;20036;-63
2023/04/23 06:34:26;;;;;;;41.60;22.63;;;10.50;99.90;;;;;;5068305;28;20089;-63
2023/04/23 06:36:52;;;;;;;38.63;20.07;;;10.50;99.90;;;;;;5072236;28;20032;-63
2023/04/23 06:39:17;;;;;;;48.77;22.30;;;10.60;99.90;;;;;;5065829;28;20021;-63
2023/04/23 06:41:43;;;;;;;36.83;21.27;;;10.60;99.90;;;;;;5067442;28;20025;-80
2023/04/23 06:44:09;;;;;;;40.17;21.17;;;10.80;99.90;;;;;;5073833;28;20115;-63
2023/04/23 06:46:35;;;;;;;36.10;19.47;;;10.80;99.90;;;;;;5064578;28;20094;-63
2023/04/23 06:49:00;;;;;;;32.43;18.20;;;10.90;99.90;;;;;;5066052;28;20250;-63
2023/04/23 06:51:26;;;;;;;36.40;18.50;;;11.00;99.90;;;;;;5074007;28;20085;-80
2023/04/23 06:53:52;;;;;;;34.20;18.70;;;11.00;99.90;;;;;;5074564;28;20090;-63
2023/04/23 06:56:19;;;;;;;30.20;17.30;;;11.10;99.90;;;;;;5074108;28;20039;-63
2023/04/23 06:58:44;;;;;;;34.30;18.40;;;11.20;99.90;;;;;;5074810;28;20099;-63
2023/04/23 07:01:10;;;;;;;31.80;18.07;;;11.30;99.90;;;;;;5065796;28;20381;-63
2023/04/23 07:03:36;;;;;;;29.77;16.83;;;11.50;99.90;;;;;;5073252;28;20028;-63
2023/04/23 07:06:02;;;;;;;33.70;19.27;;;11.60;99.90;;;;;;5074092;28;20098;-62
2023/04/23 07:08:28;;;;;;;33.70;17.60;;;11.90;99.90;;;;;;5072254;28;20296;-63
2023/04/23 07:10:53;;;;;;;30.40;17.50;;;12.20;99.90;;;;;;5071577;28;20032;-63
2023/04/23 07:13:19;;;;;;;30.77;17.33;;;12.60;99.90;;;;;;5067344;28;20025;-63
2023/04/23 07:15:45;;;;;;;25.60;15.70;;;12.90;99.90;;;;;;5064903;28;20031;-63
2023/04/23 07:18:11;;;;;;;22.17;13.93;;;13.20;99.90;;;;;;5074688;28;20403;-63
2023/04/23 07:20:37;;;;;;;29.53;15.57;;;13.50;99.90;;;;;;5073567;28;20103;-63
2023/04/23 07:23:03;;;;;;;25.47;14.40;;;13.80;99.90;;;;;;5074614;28;20036;-63
2023/04/23 07:25:29;;;;;;;24.87;13.40;;;14.20;99.90;;;;;;5073494;28;20032;-69
2023/04/23 07:27:55;;;;;;;;;;;14.50;99.90;;;;;;5069524;28;20020;-64
2023/04/23 07:30:22;;;;;;;19.67;11.70;;;15.00;99.90;;;;;;5071878;28;19978;-64
2023/04/23 07:32:48;;;;;;;18.20;11.13;;;15.40;99.90;;;;;;5080544;28;20048;-63
2023/04/23 07:35:14;;;;;;;16.50;10.30;;;15.90;99.90;;;;;;5074323;28;20024;-63
2023/04/23 07:37:40;;;;;;;17.40;11.17;;;16.40;99.90;;;;;;5074087;28;20101;-63
2023/04/23 07:40:07;;;;;;;17.25;10.25;;;17.00;99.90;;;;;;5073918;28;20056;-65
2023/04/23 07:42:33;;;;;;;22.67;10.00;;;17.30;99.90;;;;;;5073409;28;20024;-80
2023/04/23 07:44:59;;;;;;;16.60;9.20;;;17.60;99.90;;;;;;5074321;28;20028;-64
2023/04/23 07:47:25;;;;;;;15.57;9.10;;;17.90;99.90;;;;;;5073219;28;20030;-63
2023/04/23 07:49:50;;;;;;;13.67;7.33;;;18.00;99.90;;;;;;5073483;28;20036;-64
2023/04/23 07:52:16;;;;;;;16.07;8.57;;;17.90;99.90;;;;;;5074227;28;20035;-78
2023/04/23 07:54:42;;;;;;;12.90;8.00;;;17.80;99.90;;;;;;5074886;28;20052;-63
2023/04/23 07:57:09;;;;;;;10.93;7.68;;;18.00;99.90;;;;;;5077755;28;20450;-64
2023/04/23 07:59:35;;;;;;;11.27;6.65;;;18.20;99.90;;;;;;5077269;28;20111;-64
2023/04/23 08:02:01;;;;;;;16.40;8.05;;;18.40;99.90;;;;;;5077572;28;20036;-65
2023/04/23 08:04:26;;;;;;;14.53;7.93;;;18.60;99.90;;;;;;5076576;28;20427;-64
2023/04/23 08:06:52;;;;;;;12.33;7.13;;;18.70;99.90;;;;;;5077216;28;20020;-64
2023/04/23 08:09:17;;;;;;;12.30;7.10;;;18.80;99.90;;;;;;5077520;28;20426;-78
2023/04/23 08:11:43;;;;;;;14.57;6.83;;;18.90;99.90;;;;;;5076786;28;20409;-64
2023/04/23 08:14:10;;;;;;;14.53;6.53;;;19.00;99.90;;;;;;5067818;28;20021;-64
2023/04/23 08:16:36;;;;;;;16.85;7.10;;;19.30;99.90;;;;;;5071174;28;20336;-64
2023/04/23 08:19:03;;;;;;;11.52;6.68;;;19.50;99.90;;;;;;5077215;28;20056;-64
2023/04/23 08:21:32;;;;;;;10.18;6.00;;;19.50;99.90;;;;;;5076465;28;20103;-64
2023/04/23 08:23:58;;;;;;;10.88;6.22;;;19.50;99.90;;;;;;5076673;28;20024;-64
2023/04/23 08:26:24;;;;;;;8.97;6.30;;;19.60;99.90;;;;;;5077311;28;20320;-71
2023/04/23 08:28:50;;;;;;;10.27;6.30;;;19.80;99.90;;;;;;5076320;28;20041;-64
2023/04/23 08:31:16;;;;;;;22.73;6.50;;;19.90;99.90;;;;;;5077402;28;20052;-78
2023/04/23 08:33:42;;;;;;;18.07;8.47;;;19.90;99.90;;;;;;5076246;28;20028;-64
2023/04/23 08:36:08;;;;;;;17.37;6.13;;;19.90;99.90;;;;;;5077148;28;20025;-65
2023/04/23 08:38:34;;;;;;;10.97;7.40;;;20.10;99.90;;;;;;5072878;28;20102;-64
2023/04/23 08:41:04;;;;;;;9.50;6.53;;;20.30;99.90;;;;;;5075109;28;20021;-64
2023/04/23 08:43:46;;;;;;;25.60;22.10;;;20.40;99.90;;;;;;5076541;28;20036;-64
2023/04/23 08:46:14;;;;;;;13.10;7.25;;;20.50;99.90;;;;;;5076366;28;20312;-79
2023/04/23 08:48:40;;;;;;;14.35;9.55;;;20.60;99.90;;;;;;5074580;28;20020;-64
2023/04/23 08:51:08;;;;;;;12.43;5.25;;;20.60;99.90;;;;;;5068935;28;20324;-79
2023/04/23 08:53:34;;;;;;;9.85;5.35;;;20.80;99.90;;;;;;5072531;28;20017;-64
2023/04/23 08:56:02;;;;;;;11.50;5.95;;;20.90;99.90;;;;;;5064771;28;20112;-64
2023/04/23 08:58:29;;;;;;;12.23;5.20;;;20.90;99.90;;;;;;5075341;28;20033;-72
2023/04/23 09:00:56;;;;;;;;;;;20.70;99.90;;;;;;5076892;28;20046;-64
2023/04/23 09:03:24;;;;;;;15.07;8.50;;;20.80;99.90;;;;;;5067220;28;20242;-64
2023/04/23 09:05:52;;;;;;;41.17;26.92;;;20.80;99.90;;;;;;5073726;28;20035;-64
2023/04/23 09:08:19;;;;;;;18.38;6.32;;;20.80;99.90;;;;;;5076025;28;20029;-63
2023/04/23 09:10:45;;;;;;;15.35;5.55;;;20.90;99.90;;;;;;5072451;28;20155;-64
2023/04/23 09:13:12;;;;;;;17.00;4.30;;;21.00;99.90;;;;;;5069309;28;20481;-64
2023/04/23 09:15:42;;;;;;;11.30;3.67;;;21.20;99.90;;;;;;5075912;28;20028;-65
2023/04/23 09:18:09;;;;;;;9.57;4.60;;;21.20;99.90;;;;;;5076304;28;20424;-64
2023/04/23 09:20:35;;;;;;;14.23;4.28;;;21.30;99.90;;;;;;5075451;28;20023;-64
2023/04/23 09:23:06;;;;;;;12.50;3.60;;;21.40;99.90;;;;;;5063174;28;20029;-64
2023/04/23 09:25:32;;;;;;;10.90;4.53;;;21.40;99.90;;;;;;5064671;28;20032;-64
2023/04/23 09:28:00;;;;;;;8.00;3.63;;;21.70;99.90;;;;;;5075948;28;20032;-65
2023/04/23 09:30:26;;;;;;;11.00;3.83;;;21.50;99.90;;;;;;5075754;28;20033;-64
2023/04/23 09:32:52;;;;;;;10.88;3.13;;;21.60;99.90;;;;;;5070346;28;20028;-64
2023/04/23 09:35:19;;;;;;;7.07;3.03;;;21.90;99.90;;;;;;5065140;28;20033;-66
2023/04/23 09:37:47;;;;;;;9.57;3.50;;;22.00;99.90;;;;;;5076236;28;20047;-65
2023/04/23 09:40:18;;;;;;;20.42;3.38;;;22.00;99.90;;;;;;5074179;28;20036;-78
2023/04/23 09:42:49;;;;;;;12.38;2.97;;;21.80;99.90;;;;;;5074690;28;20036;-66
2023/04/23 09:45:15;;;;;;;10.68;3.25;;;21.70;99.90;;;;;;5076008;28;20032;-71
2023/04/23 09:47:51;;;;;;;11.43;2.67;;;21.90;99.90;;;;;;5064848;28;20104;-80
2023/04/23 09:50:17;;;;;;;9.00;2.90;;;22.10;99.90;;;;;;5075737;28;20059;-69
2023/04/23 09:52:43;;;;;;;7.93;2.75;;;22.10;99.90;;;;;;5075533;28;20107;-65
2023/04/23 09:55:09;;;;;;;7.65;2.97;;;22.10;99.90;;;;;;5074278;28;20103;-66
2023/04/23 09:57:42;;;;;;;12.13;3.50;;;21.80;99.90;;;;;;5081162;28;20406;-65
2023/04/23 10:00:15;;;;;;;8.20;2.53;;;21.80;99.90;;;;;;5071744;28;20024;-66
2023/04/23 10:02:47;;;;;;;7.82;2.88;;;21.70;99.90;;;;;;5069039;28;20024;-65
2023/04/23 10:05:15;;;;;;;8.90;2.45;;;21.50;99.90;;;;;;5072923;28;20107;-65
2023/04/23 10:07:47;;;;;;;13.60;2.90;;;21.50;99.90;;;;;;5064238;28;20116;-65
2023/04/23 10:10:14;;;;;;;12.77;3.50;;;21.40;99.90;;;;;;5070772;28;20361;-66
2023/04/23 10:12:41;;;;;;;9.30;2.70;;;21.60;99.90;;;;;;5069751;28;20044;-65
2023/04/23 10:15:09;;;;;;;5.72;2.55;;;21.80;99.90;;;;;;5072375;28;20419;-64
2023/04/23 10:17:36;;;;;;;11.25;2.83;;;21.80;99.90;;;;;;5065846;28;20032;-64
2023/04/23 10:20:02;;;;;;;8.18;2.20;;;21.60;99.90;;;;;;5065424;28;20495;-64
2023/04/23 10:22:29;;;;;;;12.75;2.42;;;21.90;99.90;;;;;;5061778;28;20056;-65
2023/04/23 10:24:59;;;;;;;6.72;2.17;;;22.00;99.90;;;;;;5077242;28;20035;-66
2023/04/23 10:27:29;;;;;;;10.15;2.53;;;22.00;99.90;;;;;;5074570;28;20082;-78
2023/04/23 10:29:56;;;;;;;10.90;2.47;;;22.00;99.90;;;;;;5074591;28;20143;-65
2023/04/23 10:32:23;;;;;;;10.48;2.88;;;22.00;99.90;;;;;;5060938;28;20029;-78
2023/04/23 10:34:49;;;;;;;11.55;3.20;;;21.60;99.90;;;;;;5069916;28;20495;-66
2023/04/23 10:37:18;;;;;;;11.05;2.22;;;21.50;99.90;;;;;;5072360;28;20047;-79
2023/04/23 10:39:46;;;;;;;9.73;2.63;;;21.70;99.90;;;;;;5074484;28;20021;-65
2023/04/23 10:42:12;;;;;;;12.43;2.65;;;21.80;99.90;;;;;;5072137;28;20161;-80
2023/04/23 10:44:41;;;;;;;9.43;2.17;;;21.60;99.90;;;;;;5072590;28;20028;-64
2023/04/23 10:47:14;;;;;;;16.15;2.45;;;21.30;99.90;;;;;;5070784;28;20068;-65
2023/04/23 10:49:41;;;;;;;7.22;1.83;;;21.00;99.90;;;;;;5062583;28;20427;-65
2023/04/23 10:52:14;;;;;;;7.55;2.10;;;20.70;99.90;;;;;;5065268;28;20044;-65
2023/04/23 10:54:55;;;;;;;8.88;2.17;;;20.70;99.90;;;;;;5073366;28;20049;-65
2023/04/23 10:57:21;;;;;;;6.07;1.60;;;20.70;99.90;;;;;;5073002;28;20056;-64
2023/04/23 10:59:55;;;;;;;7.93;2.03;;;20.70;99.90;;;;;;5074232;28;20052;-65
2023/04/23 11:02:23;;;;;;;7.07;1.90;;;20.60;99.90;;;;;;5072343;28;20051;-66
2023/04/23 11:04:57;;;;;;;8.93;2.35;;;20.70;99.90;;;;;;5073089;28;20111;-64
2023/04/23 11:07:30;;;;;;;9.63;2.70;;;20.80;99.90;;;;;;5073916;28;20032;-65
2023/04/23 11:09:59;;;;;;;8.40;1.85;;;20.80;99.90;;;;;;5071626;28;20421;-78
2023/04/23 11:12:31;;;;;;;8.20;1.80;;;20.70;99.90;;;;;;5063609;28;20017;-65
2023/04/23 11:15:13;;;;;;;4.47;1.65;;;20.70;99.90;;;;;;5064859;28;20060;-65
2023/04/23 11:17:46;;;;;;;8.20;2.33;;;20.70;99.90;;;;;;5064487;28;20419;-66
2023/04/23 11:20:17;;;;;;;5.97;1.92;;;20.50;99.90;;;;;;5059569;28;20319;-66
2023/04/23 11:22:50;;;;;;;8.20;1.98;;;20.40;99.90;;;;;;5073938;28;20109;-79
2023/04/23 11:25:23;;;;;;;6.70;1.92;;;20.50;99.90;;;;;;5070793;28;20056;-76
2023/04/23 11:27:51;;;;;;;9.85;1.95;;;20.40;99.90;;;;;;5063987;28;20033;-78
2023/04/23 11:30:18;;;;;;;6.28;1.45;;;20.30;99.90;;;;;;5073989;28;20045;-72
2023/04/23 11:32:47;;;;;;;8.88;1.55;;;20.10;99.90;;;;;;5073098;28;20408;-77
2023/04/23 11:35:14;;;;;;;5.88;1.85;;;20.20;99.90;;;;;;5074456;28;20020;-75
2023/04/23 11:37:42;;;;;;;11.60;1.58;;;20.30;99.90;;;;;;5068826;28;20032;-73
2023/04/23 11:40:09;;;;;;;8.30;1.33;;;20.30;99.90;;;;;;5077898;28;20020;-78
2023/04/23 11:42:45;;;;;;;8.50;1.73;;;20.30;99.90;;;;;;5074678;28;20029;-76
2023/04/23 11:45:20;;;;;;;5.38;1.65;;;20.30;99.90;;;;;;5074084;28;20029;-73
2023/04/23 11:47:49;;;;;;;5.82;1.13;;;20.10;99.90;;;;;;5074782;28;20036;-75
2023/04/23 11:50:23;;;;;;;4.97;1.20;;;20.10;99.90;;;;;;5063969;28;20032;-77
2023/04/23 11:52:49;;;;;;;7.65;1.50;;;20.20;99.90;;;;;;5068265;28;20502;-75
2023/04/23 11:55:15;;;;;;;6.83;1.57;;;20.20;99.90;;;;;;5076685;28;20123;-70
2023/04/23 11:57:45;;;;;;;9.18;1.40;;;20.40;99.90;;;;;;5077216;28;20032;-75
2023/04/23 12:00:23;;;;;;;6.13;1.48;;;20.30;99.90;;;;;;5070705;28;20416;-77
2023/04/23 12:02:58;;;;;;;4.90;1.40;;;20.20;99.90;;;;;;5070634;28;20087;-70
2023/04/23 12:05:27;;;;;;;5.45;1.40;;;20.10;99.90;;;;;;5071993;28;20032;-76
2023/04/23 12:07:53;;;;;;;8.70;1.73;;;20.00;99.90;;;;;;5077405;28;20176;-77
2023/04/23 12:10:20;;;;;;;3.13;1.43;;;20.00;99.90;;;;;;5077170;28;20052;-68
2023/04/23 12:12:52;;;;;;;6.28;1.50;;;19.90;99.90;;;;;;5072382;28;20014;-76
2023/04/23 12:15:18;;;;;;;7.47;1.88;;;19.80;99.90;;;;;;5066865;28;20027;-76
2023/04/23 12:18:08;;;;;;;4.50;1.45;;;19.60;99.90;;;;;;5068799;28;20150;-76
2023/04/23 12:20:34;;;;;;;3.67;1.50;;;19.60;99.90;;;;;;5073671;28;20036;-73
2023/04/23 12:23:04;;;;;;;4.65;1.17;;;19.60;99.90;;;;;;5076807;28;20170;-74
2023/04/23 12:25:30;;;;;;;3.65;1.15;;;19.70;99.90;;;;;;5064345;28;20032;-68
2023/04/23 12:27:59;;;;;;;5.43;1.00;;;19.50;99.90;;;;;;5064971;28;20034;-75
2023/04/23 12:30:31;;;;;;;3.72;1.63;;;19.40;99.90;;;;;;5075740;28;20028;-77
2023/04/23 12:33:00;;;;;;;4.68;1.40;;;19.40;99.90;;;;;;5076672;28;20047;-72
2023/04/23 12:35:44;;;;;;;3.92;1.10;;;19.40;99.90;;;;;;5070616;28;20238;-71
2023/04/23 12:38:29;;;;;;;4.10;1.20;;;19.30;99.90;;;;;;5068539;28;20090;-70